CFG025 HEGN-EDDM
Flight info
| Callsign | CFG025 |
|---|---|
| Flight time | N/A |
| Altitude | 34000 |
| Route | N0455F340 BOTIX V608 NABED T55 KUNKI P751 METRU UM872 LINGI N0452F360 UM872 PLH UL604 TRL DCT TUMBO DCT PETAK DCT NIVES DCT RASTA DCT REDBU Q112 NAPSA |
| Aircraft | A320/M-SDFGHIJ1RWY/LB1 |
Departure
| Time | 2026-05-04 16:46 |
|---|---|
| Airport | Hurghada International Airport (HEGN) |
Arrival
| Time | N/A |
|---|---|
| Airport | Munich Airport (EDDM) |
| Time | Latitude | Longitude | Altitude | Speed | Heading |
|---|---|---|---|---|---|
| 2026-05-04 15:46 | 27.17634 | 33.80697 | 58 ft | 0 kts | 75° |
| 2026-05-04 16:35 | 27.17630 | 33.80680 | 51 ft | 3 kts | 77° |
| 2026-05-04 16:36 | 27.17625 | 33.80657 | 53 ft | 3 kts | 81° |
| 2026-05-04 16:36 | 27.17623 | 33.80613 | 52 ft | 3 kts | 101° |
| 2026-05-04 16:37 | 27.17635 | 33.80588 | 50 ft | 0 kts | 165° |
| 2026-05-04 16:39 | 27.17501 | 33.80601 | 52 ft | 18 kts | 222° |
| 2026-05-04 16:40 | 27.17424 | 33.80317 | 51 ft | 23 kts | 255° |
| 2026-05-04 16:40 | 27.17344 | 33.79983 | 50 ft | 22 kts | 255° |
| 2026-05-04 16:41 | 27.17274 | 33.79692 | 86 ft | 12 kts | 255° |
| 2026-05-04 16:41 | 27.17130 | 33.79519 | 104 ft | 10 kts | 165° |
| 2026-05-04 16:42 | 27.16815 | 33.79613 | 106 ft | 22 kts | 165° |
| 2026-05-04 16:43 | 27.16551 | 33.79691 | 107 ft | 17 kts | 164° |
| 2026-05-04 16:43 | 27.16246 | 33.79781 | 114 ft | 30 kts | 166° |
| 2026-05-04 16:43 | 27.16084 | 33.79827 | 114 ft | 20 kts | 166° |
| 2026-05-04 16:44 | 27.16190 | 33.79601 | 113 ft | 71 kts | 345° |
| 2026-05-04 16:45 | 27.17846 | 33.79111 | 218 ft | 157 kts | 345° |
| 2026-05-04 16:46 | 27.21059 | 33.78274 | 1880 ft | 168 kts | 343° |
| 2026-05-04 16:46 | 27.23634 | 33.77596 | 2243 ft | 211 kts | 343° |
| 2026-05-04 16:47 | 27.26781 | 33.76758 | 2885 ft | 251 kts | 343° |
| 2026-05-04 16:47 | 27.29606 | 33.74630 | 4278 ft | 252 kts | 298° |
| 2026-05-04 16:48 | 27.29454 | 33.68818 | 6522 ft | 259 kts | 257° |
| 2026-05-04 16:48 | 27.29024 | 33.66851 | 7264 ft | 259 kts | 257° |
| 2026-05-04 16:49 | 27.28185 | 33.62955 | 8834 ft | 257 kts | 257° |
| 2026-05-04 16:49 | 27.27347 | 33.59059 | 10280 ft | 261 kts | 256° |
| 2026-05-04 16:50 | 27.26418 | 33.54762 | 10602 ft | 302 kts | 256° |
| 2026-05-04 16:50 | 27.25421 | 33.50134 | 11779 ft | 309 kts | 256° |
| 2026-05-04 16:51 | 27.24402 | 33.45410 | 13113 ft | 313 kts | 256° |
| 2026-05-04 16:51 | 27.23885 | 33.43029 | 13771 ft | 315 kts | 255° |
| 2026-05-04 16:51 | 27.22837 | 33.38228 | 14914 ft | 318 kts | 256° |
| 2026-05-04 16:52 | 27.21877 | 33.33334 | 16007 ft | 324 kts | 263° |
| 2026-05-04 16:52 | 27.21903 | 33.30788 | 16508 ft | 329 kts | 272° |
| 2026-05-04 16:53 | 27.22345 | 33.25656 | 17553 ft | 335 kts | 272° |
| 2026-05-04 16:53 | 27.23000 | 33.17766 | 19119 ft | 341 kts | 272° |
| 2026-05-04 16:54 | 27.23216 | 33.15106 | 19622 ft | 343 kts | 272° |
| 2026-05-04 16:55 | 27.24086 | 33.04346 | 21493 ft | 351 kts | 273° |
| 2026-05-04 16:55 | 27.24530 | 32.98851 | 22404 ft | 355 kts | 273° |
| 2026-05-04 16:56 | 27.24982 | 32.93288 | 23258 ft | 360 kts | 273° |
| 2026-05-04 16:56 | 27.25650 | 32.84863 | 24352 ft | 365 kts | 272° |
| 2026-05-04 16:57 | 27.25877 | 32.82023 | 24696 ft | 366 kts | 272° |
| 2026-05-04 16:57 | 27.26336 | 32.76308 | 25357 ft | 368 kts | 272° |
| 2026-05-04 16:58 | 27.27015 | 32.67663 | 26305 ft | 372 kts | 272° |
| 2026-05-04 16:58 | 27.27238 | 32.64762 | 26609 ft | 373 kts | 272° |
| 2026-05-04 16:59 | 27.27684 | 32.58963 | 27199 ft | 376 kts | 272° |
| 2026-05-04 17:00 | 27.28599 | 32.47174 | 28286 ft | 381 kts | 272° |
| 2026-05-04 17:00 | 27.29279 | 32.38264 | 29057 ft | 385 kts | 272° |
| 2026-05-04 17:01 | 27.29759 | 32.32250 | 29520 ft | 389 kts | 275° |
| 2026-05-04 17:01 | 27.31565 | 32.26441 | 29956 ft | 405 kts | 294° |
| 2026-05-04 17:02 | 27.34962 | 32.21283 | 30400 ft | 412 kts | 300° |
| 2026-05-04 17:02 | 27.38434 | 32.16227 | 30903 ft | 410 kts | 299° |
| 2026-05-04 17:03 | 27.40174 | 32.13687 | 31156 ft | 410 kts | 299° |
| 2026-05-04 17:03 | 27.41908 | 32.11147 | 31403 ft | 409 kts | 299° |
| 2026-05-04 17:03 | 27.45361 | 32.06069 | 31892 ft | 408 kts | 299° |
| 2026-05-04 17:04 | 27.48798 | 32.01017 | 32070 ft | 401 kts | 299° |
| 2026-05-04 17:04 | 27.52154 | 31.96097 | 32079 ft | 397 kts | 298° |
| 2026-05-04 17:05 | 27.58852 | 31.86210 | 32096 ft | 397 kts | 299° |
| 2026-05-04 17:06 | 27.63875 | 31.78801 | 32109 ft | 396 kts | 299° |
| 2026-05-04 17:07 | 27.68320 | 31.72225 | 32121 ft | 396 kts | 299° |
| 2026-05-04 17:07 | 27.72192 | 31.66484 | 32126 ft | 395 kts | 299° |
| 2026-05-04 17:08 | 27.77186 | 31.59082 | 32126 ft | 395 kts | 299° |
| 2026-05-04 17:09 | 27.80487 | 31.54181 | 32127 ft | 394 kts | 299° |
| 2026-05-04 17:09 | 27.83804 | 31.49247 | 32127 ft | 394 kts | 299° |
| 2026-05-04 17:10 | 27.92075 | 31.36928 | 32131 ft | 393 kts | 299° |
| 2026-05-04 17:11 | 27.95360 | 31.32039 | 32130 ft | 393 kts | 299° |
| 2026-05-04 17:12 | 28.00291 | 31.24653 | 32132 ft | 392 kts | 299° |
| 2026-05-04 17:13 | 28.08465 | 31.12409 | 32137 ft | 390 kts | 299° |
| 2026-05-04 17:14 | 28.14991 | 31.02607 | 32137 ft | 389 kts | 299° |
| 2026-05-04 17:15 | 28.19845 | 30.95310 | 32131 ft | 388 kts | 299° |
| 2026-05-04 17:16 | 28.26315 | 30.85551 | 32122 ft | 387 kts | 299° |
| 2026-05-04 17:17 | 28.32736 | 30.75843 | 32124 ft | 385 kts | 299° |
| 2026-05-04 17:18 | 28.39149 | 30.66126 | 32123 ft | 384 kts | 299° |
| 2026-05-04 17:19 | 28.45515 | 30.56468 | 32123 ft | 382 kts | 299° |
| 2026-05-04 17:20 | 28.51873 | 30.46798 | 32117 ft | 381 kts | 299° |
| 2026-05-04 17:20 | 28.56595 | 30.39584 | 32116 ft | 380 kts | 299° |
| 2026-05-04 17:21 | 28.62910 | 30.29942 | 32107 ft | 379 kts | 299° |
| 2026-05-04 17:22 | 28.66061 | 30.25121 | 32108 ft | 379 kts | 299° |
| 2026-05-04 17:23 | 28.72315 | 30.15521 | 32106 ft | 378 kts | 299° |
| 2026-05-04 17:24 | 28.77017 | 30.08308 | 32104 ft | 378 kts | 299° |
| 2026-05-04 17:25 | 28.83239 | 29.98730 | 32106 ft | 377 kts | 299° |
| 2026-05-04 17:26 | 28.89457 | 29.89130 | 32105 ft | 375 kts | 299° |
| 2026-05-04 17:27 | 28.97180 | 29.77195 | 32098 ft | 374 kts | 299° |
| 2026-05-04 17:28 | 29.03324 | 29.67663 | 32101 ft | 373 kts | 299° |
| 2026-05-04 17:29 | 29.12525 | 29.53341 | 32108 ft | 372 kts | 299° |
| 2026-05-04 17:31 | 29.20144 | 29.41472 | 32106 ft | 370 kts | 299° |
| 2026-05-04 17:32 | 29.27736 | 29.29584 | 32111 ft | 369 kts | 299° |
| 2026-05-04 17:33 | 29.33770 | 29.20119 | 32107 ft | 369 kts | 299° |
| 2026-05-04 17:34 | 29.39805 | 29.10622 | 32108 ft | 368 kts | 300° |
| 2026-05-04 17:35 | 29.45339 | 29.04397 | 32112 ft | 382 kts | 314° |
| 2026-05-04 17:35 | 29.49574 | 29.00711 | 32116 ft | 382 kts | 314° |
| 2026-05-04 17:36 | 29.53798 | 28.97020 | 32117 ft | 381 kts | 314° |
| 2026-05-04 17:36 | 29.57986 | 28.93345 | 32121 ft | 381 kts | 314° |
| 2026-05-04 17:37 | 29.62197 | 28.89648 | 32125 ft | 381 kts | 314° |
| 2026-05-04 17:37 | 29.66400 | 28.85951 | 32128 ft | 380 kts | 314° |
| 2026-05-04 17:38 | 29.70606 | 28.82258 | 32129 ft | 380 kts | 314° |
| 2026-05-04 17:38 | 29.74777 | 28.78595 | 32129 ft | 380 kts | 314° |
| 2026-05-04 17:39 | 29.81065 | 28.73061 | 32133 ft | 379 kts | 314° |
| 2026-05-04 17:39 | 29.85247 | 28.69361 | 32137 ft | 379 kts | 314° |
| 2026-05-04 17:40 | 29.89428 | 28.65666 | 32137 ft | 379 kts | 314° |
| 2026-05-04 17:40 | 29.93574 | 28.61992 | 32133 ft | 378 kts | 314° |
| 2026-05-04 17:41 | 29.97749 | 28.58299 | 32135 ft | 378 kts | 314° |
| 2026-05-04 17:41 | 30.01922 | 28.54598 | 32136 ft | 378 kts | 314° |
| 2026-05-04 17:42 | 30.06091 | 28.50897 | 32137 ft | 378 kts | 314° |
| 2026-05-04 17:42 | 30.10231 | 28.47221 | 32140 ft | 378 kts | 314° |
| 2026-05-04 17:43 | 30.14392 | 28.43513 | 32136 ft | 378 kts | 314° |
| 2026-05-04 17:43 | 30.18557 | 28.39808 | 32140 ft | 378 kts | 314° |
| 2026-05-04 17:44 | 30.22696 | 28.36127 | 32138 ft | 378 kts | 314° |
| 2026-05-04 17:44 | 30.26861 | 28.32418 | 32138 ft | 378 kts | 314° |
| 2026-05-04 17:45 | 30.31025 | 28.28701 | 32144 ft | 378 kts | 314° |
| 2026-05-04 17:45 | 30.35183 | 28.24983 | 32142 ft | 378 kts | 314° |
| 2026-05-04 17:46 | 30.39348 | 28.21267 | 32143 ft | 378 kts | 314° |
| 2026-05-04 17:46 | 30.43481 | 28.17575 | 32145 ft | 378 kts | 315° |
| 2026-05-04 17:47 | 30.47639 | 28.13843 | 32126 ft | 378 kts | 316° |
| 2026-05-04 17:47 | 30.51805 | 28.10104 | 32124 ft | 379 kts | 316° |
| 2026-05-04 17:48 | 30.55980 | 28.06355 | 32143 ft | 380 kts | 316° |
| 2026-05-04 17:48 | 30.60126 | 28.02616 | 32136 ft | 380 kts | 316° |
| 2026-05-04 17:49 | 30.64309 | 27.98844 | 32145 ft | 381 kts | 316° |
| 2026-05-04 17:49 | 30.68499 | 27.95066 | 32136 ft | 382 kts | 316° |
| 2026-05-04 17:50 | 30.72696 | 27.91275 | 32140 ft | 382 kts | 316° |
| 2026-05-04 17:50 | 30.76868 | 27.87506 | 32141 ft | 383 kts | 316° |
| 2026-05-04 17:51 | 30.81072 | 27.83704 | 32143 ft | 383 kts | 316° |
| 2026-05-04 17:51 | 30.85281 | 27.79889 | 32142 ft | 384 kts | 316° |
| 2026-05-04 17:52 | 30.89488 | 27.76069 | 32144 ft | 384 kts | 316° |
| 2026-05-04 17:52 | 30.93678 | 27.72263 | 32146 ft | 384 kts | 316° |
| 2026-05-04 17:53 | 30.97892 | 27.68421 | 32146 ft | 385 kts | 316° |
| 2026-05-04 17:53 | 31.02113 | 27.64573 | 32149 ft | 386 kts | 316° |
| 2026-05-04 17:54 | 31.06343 | 27.60723 | 32150 ft | 386 kts | 317° |
| 2026-05-04 17:54 | 31.10553 | 27.56890 | 32150 ft | 387 kts | 317° |
| 2026-05-04 17:55 | 31.14376 | 27.52582 | 32151 ft | 379 kts | 303° |
| 2026-05-04 17:55 | 31.17334 | 27.47491 | 32154 ft | 379 kts | 301° |
| 2026-05-04 17:56 | 31.20301 | 27.42393 | 32162 ft | 380 kts | 302° |
| 2026-05-04 17:56 | 31.23249 | 27.37322 | 32169 ft | 380 kts | 302° |
| 2026-05-04 17:57 | 31.26218 | 27.32210 | 32173 ft | 380 kts | 302° |
| 2026-05-04 17:57 | 31.29181 | 27.27089 | 32177 ft | 380 kts | 302° |
| 2026-05-04 17:58 | 31.32439 | 27.22208 | 32178 ft | 385 kts | 313° |
| 2026-05-04 17:58 | 31.36824 | 27.18604 | 32179 ft | 390 kts | 322° |
| 2026-05-04 17:59 | 31.41417 | 27.15204 | 32177 ft | 391 kts | 322° |
| 2026-05-04 18:00 | 31.48298 | 27.10069 | 32170 ft | 391 kts | 322° |
| 2026-05-04 18:00 | 31.52847 | 27.06658 | 32165 ft | 391 kts | 322° |
| 2026-05-04 18:01 | 31.57425 | 27.03212 | 32162 ft | 391 kts | 323° |
| 2026-05-04 18:01 | 31.62007 | 26.99770 | 32154 ft | 391 kts | 323° |
| 2026-05-04 18:02 | 31.68878 | 26.94593 | 32156 ft | 391 kts | 323° |
| 2026-05-04 18:02 | 31.73428 | 26.91165 | 32153 ft | 391 kts | 323° |
| 2026-05-04 18:03 | 31.78004 | 26.87715 | 32155 ft | 391 kts | 323° |
| 2026-05-04 18:03 | 31.82579 | 26.84255 | 32159 ft | 391 kts | 323° |
| 2026-05-04 18:04 | 31.87123 | 26.80819 | 32161 ft | 391 kts | 323° |
| 2026-05-04 18:05 | 31.93988 | 26.75626 | 32162 ft | 391 kts | 323° |
| 2026-05-04 18:05 | 31.98556 | 26.72161 | 32162 ft | 390 kts | 323° |
| 2026-05-04 18:06 | 32.05368 | 26.66986 | 32163 ft | 390 kts | 323° |
| 2026-05-04 18:06 | 32.09929 | 26.63516 | 32163 ft | 390 kts | 323° |
| 2026-05-04 18:07 | 32.14482 | 26.60052 | 32165 ft | 389 kts | 323° |
| 2026-05-04 18:07 | 32.19025 | 26.56574 | 32166 ft | 389 kts | 323° |
| 2026-05-04 18:08 | 32.23535 | 26.53129 | 32166 ft | 389 kts | 323° |
| 2026-05-04 18:08 | 32.28073 | 26.49668 | 32167 ft | 388 kts | 323° |
| 2026-05-04 18:09 | 32.37124 | 26.42745 | 32176 ft | 387 kts | 323° |
| 2026-05-04 18:10 | 32.41607 | 26.39308 | 32175 ft | 386 kts | 323° |
| 2026-05-04 18:10 | 32.46108 | 26.35844 | 32175 ft | 386 kts | 323° |
| 2026-05-04 18:11 | 32.50600 | 26.32384 | 32175 ft | 385 kts | 323° |
| 2026-05-04 18:11 | 32.55089 | 26.28933 | 32174 ft | 384 kts | 323° |
| 2026-05-04 18:12 | 32.59539 | 26.25503 | 32175 ft | 384 kts | 323° |
| 2026-05-04 18:12 | 32.64007 | 26.22052 | 32176 ft | 383 kts | 323° |
| 2026-05-04 18:13 | 32.68472 | 26.18604 | 32176 ft | 382 kts | 323° |
| 2026-05-04 18:14 | 32.75116 | 26.13456 | 32174 ft | 381 kts | 323° |
| 2026-05-04 18:14 | 32.79554 | 26.10016 | 32174 ft | 381 kts | 323° |
| 2026-05-04 18:15 | 32.88406 | 26.03147 | 32177 ft | 379 kts | 323° |
| 2026-05-04 18:16 | 32.92790 | 25.99730 | 32170 ft | 379 kts | 323° |
| 2026-05-04 18:16 | 32.97187 | 25.96287 | 32171 ft | 378 kts | 323° |
| 2026-05-04 18:17 | 33.03781 | 25.91137 | 32169 ft | 378 kts | 323° |
| 2026-05-04 18:18 | 33.10336 | 25.86018 | 32168 ft | 377 kts | 323° |
| 2026-05-04 18:18 | 33.14722 | 25.82589 | 32169 ft | 377 kts | 323° |
| 2026-05-04 18:19 | 33.21284 | 25.77444 | 32168 ft | 376 kts | 323° |
| 2026-05-04 18:19 | 33.25618 | 25.74032 | 32167 ft | 375 kts | 323° |
| 2026-05-04 18:20 | 33.29978 | 25.70607 | 32164 ft | 375 kts | 323° |
| 2026-05-04 18:20 | 33.34341 | 25.67184 | 32164 ft | 375 kts | 323° |
| 2026-05-04 18:21 | 33.38690 | 25.63758 | 32155 ft | 374 kts | 323° |
| 2026-05-04 18:21 | 33.43036 | 25.60331 | 32165 ft | 374 kts | 323° |
| 2026-05-04 18:22 | 33.47341 | 25.56926 | 32160 ft | 373 kts | 323° |
| 2026-05-04 18:22 | 33.51675 | 25.53496 | 32163 ft | 373 kts | 323° |
| 2026-05-04 18:23 | 33.55995 | 25.50063 | 32168 ft | 372 kts | 323° |
| 2026-05-04 18:23 | 33.60316 | 25.46643 | 32164 ft | 372 kts | 323° |
| 2026-05-04 18:24 | 33.64603 | 25.43248 | 32170 ft | 371 kts | 323° |
| 2026-05-04 18:24 | 33.68911 | 25.39827 | 32168 ft | 371 kts | 323° |
| 2026-05-04 18:25 | 33.73214 | 25.36406 | 32164 ft | 371 kts | 323° |
| 2026-05-04 18:25 | 33.77506 | 25.32987 | 32165 ft | 370 kts | 323° |
| 2026-05-04 18:26 | 33.81766 | 25.29587 | 32166 ft | 370 kts | 323° |
| 2026-05-04 18:26 | 33.86046 | 25.26162 | 32165 ft | 369 kts | 323° |
| 2026-05-04 18:27 | 33.90321 | 25.22743 | 32165 ft | 369 kts | 323° |
| 2026-05-04 18:27 | 33.94593 | 25.19331 | 32166 ft | 368 kts | 323° |
| 2026-05-04 18:28 | 33.98830 | 25.15938 | 32164 ft | 368 kts | 323° |
| 2026-05-04 18:28 | 34.03151 | 25.12628 | 32163 ft | 368 kts | 326° |
| 2026-05-04 18:29 | 34.07605 | 25.09569 | 32165 ft | 368 kts | 327° |
| 2026-05-04 18:29 | 34.12059 | 25.06526 | 32164 ft | 368 kts | 327° |
| 2026-05-04 18:30 | 34.18689 | 25.01881 | 32162 ft | 367 kts | 327° |
| 2026-05-04 18:31 | 34.23059 | 24.98779 | 32157 ft | 366 kts | 327° |
| 2026-05-04 18:31 | 34.27454 | 24.95659 | 32155 ft | 366 kts | 327° |
| 2026-05-04 18:32 | 34.31850 | 24.92540 | 32150 ft | 366 kts | 327° |
| 2026-05-04 18:32 | 34.36247 | 24.89426 | 32147 ft | 366 kts | 327° |
| 2026-05-04 18:33 | 34.40610 | 24.86325 | 32145 ft | 366 kts | 327° |
| 2026-05-04 18:33 | 34.44998 | 24.83201 | 32144 ft | 366 kts | 327° |
| 2026-05-04 18:34 | 34.49393 | 24.80085 | 32145 ft | 366 kts | 327° |
| 2026-05-04 18:34 | 34.53780 | 24.76962 | 32139 ft | 366 kts | 327° |
| 2026-05-04 18:35 | 34.58135 | 24.73852 | 32135 ft | 366 kts | 327° |
| 2026-05-04 18:35 | 34.62519 | 24.70715 | 32133 ft | 366 kts | 327° |
| 2026-05-04 18:36 | 34.66895 | 24.67576 | 32138 ft | 365 kts | 327° |
| 2026-05-04 18:36 | 34.71275 | 24.64436 | 32137 ft | 365 kts | 327° |
| 2026-05-04 18:37 | 34.75625 | 24.61317 | 32138 ft | 365 kts | 327° |
| 2026-05-04 18:37 | 34.79998 | 24.58180 | 32146 ft | 365 kts | 327° |
| 2026-05-04 18:38 | 34.84375 | 24.55036 | 32156 ft | 365 kts | 327° |
| 2026-05-04 18:38 | 34.88745 | 24.51885 | 32156 ft | 365 kts | 327° |
| 2026-05-04 18:39 | 34.93116 | 24.48732 | 32143 ft | 365 kts | 327° |
| 2026-05-04 18:39 | 34.97458 | 24.45600 | 32143 ft | 365 kts | 327° |
| 2026-05-04 18:40 | 35.01830 | 24.42443 | 32143 ft | 365 kts | 327° |
| 2026-05-04 18:40 | 35.06199 | 24.39283 | 32141 ft | 365 kts | 327° |
| 2026-05-04 18:41 | 35.10568 | 24.36114 | 32143 ft | 365 kts | 328° |
| 2026-05-04 18:41 | 35.14908 | 24.32971 | 32142 ft | 365 kts | 328° |
| 2026-05-04 18:42 | 35.19280 | 24.29796 | 32143 ft | 365 kts | 328° |
| 2026-05-04 18:42 | 35.23649 | 24.26615 | 32137 ft | 366 kts | 328° |
| 2026-05-04 18:43 | 35.28023 | 24.23432 | 32135 ft | 366 kts | 328° |
| 2026-05-04 18:43 | 35.32373 | 24.20259 | 32134 ft | 366 kts | 328° |
| 2026-05-04 18:44 | 35.36746 | 24.17064 | 32133 ft | 366 kts | 328° |
| 2026-05-04 18:44 | 35.41119 | 24.13865 | 32127 ft | 366 kts | 328° |
| 2026-05-04 18:45 | 35.45493 | 24.10665 | 32122 ft | 366 kts | 328° |
| 2026-05-04 18:45 | 35.49839 | 24.07485 | 32123 ft | 366 kts | 328° |
| 2026-05-04 18:46 | 35.54214 | 24.04280 | 32124 ft | 366 kts | 328° |
| 2026-05-04 18:46 | 35.58589 | 24.01062 | 32127 ft | 366 kts | 328° |
| 2026-05-04 18:47 | 35.62933 | 23.97861 | 32131 ft | 367 kts | 328° |
| 2026-05-04 18:47 | 35.67312 | 23.94639 | 32133 ft | 367 kts | 328° |
| 2026-05-04 18:48 | 35.71695 | 23.91422 | 32132 ft | 367 kts | 328° |
| 2026-05-04 18:48 | 35.76075 | 23.88187 | 32138 ft | 367 kts | 328° |
| 2026-05-04 18:49 | 35.80456 | 23.84940 | 32142 ft | 367 kts | 328° |
| 2026-05-04 18:49 | 35.84807 | 23.81715 | 32139 ft | 368 kts | 328° |
| 2026-05-04 18:50 | 35.89188 | 23.78465 | 32144 ft | 368 kts | 328° |
| 2026-05-04 18:50 | 35.93571 | 23.75209 | 32140 ft | 368 kts | 328° |
| 2026-05-04 18:51 | 35.97956 | 23.71949 | 32142 ft | 368 kts | 328° |
| 2026-05-04 18:51 | 36.02310 | 23.68710 | 32138 ft | 368 kts | 328° |
| 2026-05-04 18:52 | 36.06695 | 23.65442 | 32134 ft | 368 kts | 328° |
| 2026-05-04 18:52 | 36.11081 | 23.62165 | 32130 ft | 368 kts | 328° |
| 2026-05-04 18:53 | 36.15473 | 23.58892 | 32130 ft | 368 kts | 328° |
| 2026-05-04 18:53 | 36.19860 | 23.55612 | 32126 ft | 369 kts | 328° |
| 2026-05-04 18:54 | 36.24217 | 23.52341 | 32123 ft | 369 kts | 328° |
| 2026-05-04 18:54 | 36.28606 | 23.49041 | 32126 ft | 369 kts | 328° |
| 2026-05-04 18:55 | 36.33000 | 23.45752 | 32121 ft | 369 kts | 328° |
| 2026-05-04 18:55 | 36.39592 | 23.40801 | 32120 ft | 369 kts | 328° |
| 2026-05-04 18:56 | 36.43948 | 23.37509 | 32120 ft | 369 kts | 328° |
| 2026-05-04 18:56 | 36.48338 | 23.34190 | 32119 ft | 369 kts | 328° |
| 2026-05-04 18:57 | 36.52729 | 23.30874 | 32117 ft | 370 kts | 328° |
| 2026-05-04 18:57 | 36.57125 | 23.27549 | 32115 ft | 370 kts | 328° |
| 2026-05-04 18:58 | 36.61492 | 23.24230 | 32116 ft | 370 kts | 328° |
| 2026-05-04 18:58 | 36.65895 | 23.20891 | 32120 ft | 371 kts | 328° |
| 2026-05-04 18:59 | 36.70300 | 23.17548 | 32122 ft | 371 kts | 328° |
| 2026-05-04 18:59 | 36.74709 | 23.14200 | 32123 ft | 371 kts | 328° |
| 2026-05-04 19:00 | 36.79091 | 23.10863 | 32121 ft | 372 kts | 328° |
| 2026-05-04 19:00 | 36.83503 | 23.07495 | 32124 ft | 372 kts | 328° |
| 2026-05-04 19:01 | 36.87919 | 23.04121 | 32124 ft | 372 kts | 328° |
| 2026-05-04 19:01 | 36.92337 | 23.00737 | 32124 ft | 373 kts | 328° |
| 2026-05-04 19:02 | 36.96731 | 22.97367 | 32126 ft | 373 kts | 328° |
| 2026-05-04 19:02 | 37.01162 | 22.93975 | 32126 ft | 373 kts | 328° |
| 2026-05-04 19:03 | 37.05596 | 22.90577 | 32130 ft | 374 kts | 328° |
| 2026-05-04 19:03 | 37.10032 | 22.87169 | 32136 ft | 374 kts | 328° |
| 2026-05-04 19:04 | 37.14466 | 22.83753 | 32137 ft | 374 kts | 328° |
| 2026-05-04 19:04 | 37.18154 | 22.80905 | 32138 ft | 375 kts | 328° |
| 2026-05-04 19:05 | 37.23311 | 22.76907 | 32136 ft | 375 kts | 328° |
| 2026-05-04 19:05 | 37.27756 | 22.73465 | 32144 ft | 375 kts | 328° |
| 2026-05-04 19:06 | 37.31454 | 22.70606 | 32147 ft | 376 kts | 328° |
| 2026-05-04 19:06 | 37.35906 | 22.67164 | 32152 ft | 376 kts | 328° |
| 2026-05-04 19:07 | 37.40359 | 22.63709 | 32153 ft | 376 kts | 328° |
| 2026-05-04 19:07 | 37.44812 | 22.60240 | 32158 ft | 376 kts | 328° |
| 2026-05-04 19:08 | 37.49266 | 22.56771 | 32159 ft | 376 kts | 328° |
| 2026-05-04 19:08 | 37.53720 | 22.53300 | 32161 ft | 376 kts | 328° |
| 2026-05-04 19:09 | 37.58172 | 22.49818 | 32163 ft | 377 kts | 328° |
| 2026-05-04 19:09 | 37.62593 | 22.46355 | 32161 ft | 377 kts | 328° |
| 2026-05-04 19:10 | 37.66328 | 22.43425 | 32159 ft | 377 kts | 328° |
| 2026-05-04 19:10 | 37.71514 | 22.39359 | 32164 ft | 377 kts | 328° |
| 2026-05-04 19:11 | 37.75976 | 22.35853 | 32159 ft | 378 kts | 328° |
| 2026-05-04 19:11 | 37.80433 | 22.32348 | 32162 ft | 377 kts | 328° |
| 2026-05-04 19:12 | 37.87104 | 22.27106 | 32163 ft | 378 kts | 328° |
| 2026-05-04 19:13 | 37.91572 | 22.23576 | 32160 ft | 379 kts | 328° |
| 2026-05-04 19:13 | 37.96039 | 22.20030 | 32164 ft | 380 kts | 328° |
| 2026-05-04 19:14 | 38.00507 | 22.16482 | 32155 ft | 379 kts | 328° |
| 2026-05-04 19:14 | 38.04948 | 22.12962 | 32157 ft | 379 kts | 328° |
| 2026-05-04 19:15 | 38.09419 | 22.09419 | 32154 ft | 379 kts | 328° |
| 2026-05-04 19:15 | 38.13897 | 22.05869 | 32153 ft | 379 kts | 328° |
| 2026-05-04 19:16 | 38.18373 | 22.02302 | 32154 ft | 380 kts | 328° |
| 2026-05-04 19:16 | 38.22849 | 21.98725 | 32156 ft | 380 kts | 328° |
| 2026-05-04 19:17 | 38.27302 | 21.95170 | 32158 ft | 381 kts | 328° |
| 2026-05-04 19:17 | 38.31787 | 21.91585 | 32157 ft | 381 kts | 328° |
| 2026-05-04 19:18 | 38.36272 | 21.87991 | 32160 ft | 381 kts | 328° |
| 2026-05-04 19:18 | 38.40748 | 21.84392 | 32160 ft | 381 kts | 328° |
| 2026-05-04 19:19 | 38.45196 | 21.80816 | 32159 ft | 381 kts | 328° |
| 2026-05-04 19:19 | 38.49683 | 21.77218 | 32157 ft | 381 kts | 328° |
| 2026-05-04 19:20 | 38.54165 | 21.73598 | 32154 ft | 381 kts | 328° |
| 2026-05-04 19:20 | 38.58644 | 21.69979 | 32159 ft | 381 kts | 328° |
| 2026-05-04 19:21 | 38.63132 | 21.66358 | 32160 ft | 382 kts | 328° |
| 2026-05-04 19:21 | 38.67591 | 21.62748 | 32158 ft | 382 kts | 328° |
| 2026-05-04 19:22 | 38.72075 | 21.59107 | 32154 ft | 382 kts | 328° |